FAVV

Vereeniging Airport

Vereeniging, South Africa
METAR FAVV 131100Z AUTO 21004KT //// // ////// 32/04 Q1021
Observed Flight Rules
Dec-13 @ 11:00 UTC (47 minutes ago)
Wind
210° at 4 knots
Temperatures Readings
Current 32°C / 90°F
Dewpoint 4°C / 39°F
Humidity 17%
Altimeter 30.15" Hg
Pressure 1021 hPa
Elevation 1483
METAR FAVV 131100Z AUTO 21004KT //// // ////// 32/04 Q1021
Observed Flight Rules
Dec-13 @ 11:00 UTC
(47 minutes ago)
Wind
210° at 4 knots
Temperature Dewpoint
32°C / 90°F 4°C / 39°F
Humidity Altimeter Pressure
17% 30.15" Hg 1021 hPa